createdAt,value
2022-07-25T00:00:03.275Z,8.87
2022-07-25T00:02:32.513Z,9.43
2022-07-25T00:05:01.687Z,9.10
2022-07-25T00:07:29.724Z,8.80
2022-07-25T00:09:57.498Z,9.27
2022-07-25T00:12:25.389Z,9.27
2022-07-25T00:14:53.272Z,9.23
2022-07-25T00:17:21.032Z,9.60
2022-07-25T00:19:48.822Z,9.70
2022-07-25T00:22:18.045Z,9.60
2022-07-25T00:24:45.862Z,10.03
2022-07-25T00:27:13.649Z,9.40
2022-07-25T00:29:41.421Z,10.27
2022-07-25T00:32:09.185Z,10.40
2022-07-25T00:34:37.056Z,10.30
2022-07-25T00:37:04.915Z,10.63
2022-07-25T00:39:35.780Z,9.53
2022-07-25T00:42:04.658Z,9.53
2022-07-25T00:44:34.872Z,9.80
2022-07-25T00:47:02.936Z,9.80
2022-07-25T00:49:30.708Z,9.77
2022-07-25T00:51:59.861Z,9.57
2022-07-25T00:54:27.731Z,10.07
2022-07-25T00:56:56.948Z,9.93
2022-07-25T00:59:24.747Z,9.40
2022-07-25T01:01:52.807Z,9.93
2022-07-25T01:04:21.149Z,10.10
2022-07-25T01:06:49.063Z,10.13
2022-07-25T01:09:17.437Z,10.53
2022-07-25T01:11:45.210Z,10.10
2022-07-25T01:14:14.464Z,10.33
2022-07-25T01:16:42.268Z,9.50
2022-07-25T01:19:10.304Z,10.23
2022-07-25T01:21:40.794Z,9.83
2022-07-25T01:24:09.886Z,10.07
2022-07-25T01:26:38.680Z,10.53
2022-07-25T01:29:06.569Z,10.40
2022-07-25T01:31:34.427Z,10.20
2022-07-25T01:34:02.363Z,10.10
2022-07-25T01:36:30.187Z,10.43
2022-07-25T01:38:59.831Z,9.90
2022-07-25T01:41:27.705Z,10.27
2022-07-25T01:43:55.448Z,10.10
2022-07-25T01:46:23.236Z,10.43
2022-07-25T01:48:51.151Z,10.93
2022-07-25T01:51:20.417Z,9.97
2022-07-25T01:53:48.757Z,10.37
2022-07-25T01:56:19.382Z,10.50
2022-07-25T01:58:50.192Z,10.07
2022-07-25T02:01:19.503Z,10.23
2022-07-25T02:03:49.678Z,10.30
2022-07-25T02:06:19.104Z,10.30
2022-07-25T02:08:46.853Z,10.37
2022-07-25T02:11:14.681Z,10.47
2022-07-25T02:13:44.567Z,10.93
2022-07-25T02:16:12.648Z,10.50
2022-07-25T02:18:40.512Z,10.70
2022-07-25T02:21:14.310Z,9.33
2022-07-25T02:23:43.047Z,10.37
2022-07-25T02:26:11.057Z,10.03
2022-07-25T02:28:39.201Z,10.20
2022-07-25T02:31:09.096Z,9.83
2022-07-25T02:33:37.321Z,10.13
2022-07-25T02:36:05.593Z,9.83
2022-07-25T02:38:33.384Z,10.10
2022-07-25T02:41:01.173Z,10.73
2022-07-25T02:43:28.939Z,10.97
2022-07-25T02:45:56.740Z,9.97
2022-07-25T02:48:25.904Z,9.90
2022-07-25T02:50:54.369Z,10.17
2022-07-25T02:53:46.711Z,10.03
2022-07-25T02:56:10.270Z,10.57
2022-07-25T02:58:39.380Z,11.47
2022-07-25T03:01:08.133Z,10.60
2022-07-25T03:03:37.650Z,10.93
2022-07-25T03:06:06.036Z,11.53
2022-07-25T03:08:33.792Z,11.40
2022-07-25T03:11:03.864Z,10.43
2022-07-25T03:13:33.101Z,10.80
2022-07-25T03:16:01.367Z,10.67
2022-07-25T03:18:29.216Z,11.00
2022-07-25T03:20:58.367Z,10.80
2022-07-25T03:23:27.307Z,11.37
2022-07-25T03:25:55.340Z,10.87
2022-07-25T03:28:23.125Z,11.33
2022-07-25T03:30:51.094Z,11.03
2022-07-25T03:33:18.851Z,10.10
2022-07-25T03:35:46.884Z,10.10
2022-07-25T03:38:16.089Z,10.70
2022-07-25T03:40:43.934Z,10.87
2022-07-25T03:43:11.719Z,10.97
2022-07-25T03:45:39.633Z,10.73
2022-07-25T03:48:07.820Z,11.13
2022-07-25T03:50:35.587Z,11.67
2022-07-25T03:53:03.374Z,11.47
2022-07-25T03:55:32.575Z,10.77
2022-07-25T03:58:00.337Z,11.23
2022-07-25T04:00:28.184Z,11.50
2022-07-25T04:02:55.944Z,10.87
2022-07-25T04:05:23.693Z,11.07
2022-07-25T04:07:51.496Z,10.50
2022-07-25T04:10:19.302Z,10.90
2022-07-25T04:12:48.486Z,9.77
2022-07-25T04:15:16.751Z,11.00
2022-07-25T04:17:44.500Z,12.07
2022-07-25T04:20:13.867Z,11.70
2022-07-25T04:22:46.313Z,11.70
2022-07-25T04:25:14.664Z,11.43
2022-07-25T04:27:42.410Z,12.00
2022-07-25T04:30:13.125Z,12.07
2022-07-25T04:32:51.467Z,11.70
2022-07-25T04:35:19.360Z,11.93
2022-07-25T04:37:47.231Z,11.33
2022-07-25T04:40:17.259Z,10.80
2022-07-25T04:42:45.150Z,11.50
2022-07-25T04:45:14.753Z,10.87
2022-07-25T04:47:45.806Z,10.93
2022-07-25T04:50:13.911Z,10.73
2022-07-25T04:52:41.705Z,11.70
2022-07-25T04:55:10.185Z,10.13
2022-07-25T04:57:38.301Z,10.97
2022-07-25T05:00:07.912Z,10.77
2022-07-25T05:02:37.321Z,11.07
2022-07-25T05:05:06.224Z,10.60
2022-07-25T05:07:33.982Z,11.13
2022-07-25T05:10:01.811Z,10.77
2022-07-25T05:12:29.679Z,11.23
2022-07-25T05:14:57.528Z,11.27
2022-07-25T05:17:25.271Z,11.30
2022-07-25T05:19:54.415Z,11.67
2022-07-25T05:22:26.418Z,11.33
2022-07-25T05:24:56.241Z,11.63
2022-07-25T05:27:24.185Z,11.67
2022-07-25T05:29:51.945Z,12.10
2022-07-25T05:32:19.747Z,11.73
2022-07-25T05:34:47.533Z,11.60
2022-07-25T05:37:16.668Z,10.53
2022-07-25T05:39:44.528Z,11.50
2022-07-25T05:42:12.321Z,11.43
2022-07-25T05:44:40.165Z,10.97
2022-07-25T05:47:10.341Z,11.77
2022-07-25T05:49:38.142Z,11.40
2022-07-25T05:52:12.542Z,11.30
2022-07-25T05:54:42.856Z,12.23
2022-07-25T05:57:10.648Z,10.87
2022-07-25T05:59:38.468Z,12.37
2022-07-25T06:02:06.337Z,11.20
2022-07-25T06:04:34.818Z,12.30
2022-07-25T06:07:02.723Z,11.20
2022-07-25T06:09:31.836Z,11.90
2022-07-25T06:12:01.614Z,11.73
2022-07-25T06:14:30.665Z,12.87
2022-07-25T06:16:58.499Z,11.93
2022-07-25T06:19:26.253Z,11.70
2022-07-25T06:21:53.996Z,11.93
2022-07-25T06:24:21.820Z,11.90
2022-07-25T06:26:49.571Z,11.80
2022-07-25T06:29:18.701Z,12.67
2022-07-25T06:31:47.420Z,12.03
2022-07-25T06:34:15.453Z,11.97
2022-07-25T06:36:43.284Z,11.83
2022-07-25T06:39:11.284Z,12.27
2022-07-25T06:41:39.109Z,11.50
2022-07-25T06:44:07.284Z,11.87
2022-07-25T06:46:36.889Z,12.83
2022-07-25T06:49:05.329Z,12.23
2022-07-25T06:51:33.107Z,12.10
2022-07-25T06:54:01.511Z,12.35
2022-07-25T06:56:31.537Z,12.27
2022-07-25T06:58:59.317Z,11.95
2022-07-25T07:01:27.503Z,12.30
2022-07-25T07:03:56.804Z,12.87
2022-07-25T07:06:24.681Z,13.17
2022-07-25T07:08:52.876Z,12.27
2022-07-25T07:11:20.718Z,11.83
2022-07-25T07:13:48.581Z,12.00
2022-07-25T07:16:16.402Z,13.18
2022-07-25T07:18:48.765Z,12.43
2022-07-25T07:21:21.280Z,11.95
2022-07-25T07:23:49.847Z,12.15
2022-07-25T07:26:22.269Z,12.88
2022-07-25T07:28:50.097Z,12.23
2022-07-25T07:31:18.720Z,12.75
2022-07-25T07:33:46.897Z,12.13
2022-07-25T07:36:14.952Z,12.57
2022-07-25T07:38:44.495Z,11.90
2022-07-25T07:41:12.723Z,12.38
2022-07-25T07:43:40.515Z,10.82
2022-07-25T07:46:08.547Z,12.40
2022-07-25T07:48:36.358Z,12.00
2022-07-25T07:51:04.311Z,12.10
2022-07-25T07:53:49.919Z,12.35
2022-07-25T07:56:20.303Z,11.75
2022-07-25T07:58:48.583Z,11.23
2022-07-25T08:01:16.446Z,11.88
2022-07-25T08:03:44.297Z,12.07
2022-07-25T08:06:12.090Z,11.25
2022-07-25T08:08:40.411Z,11.13
2022-07-25T08:11:08.173Z,11.07
2022-07-25T08:13:38.135Z,11.73
2022-07-25T08:16:06.871Z,10.95
2022-07-25T08:18:34.738Z,11.18
2022-07-25T08:21:05.961Z,10.90
2022-07-25T08:23:35.311Z,11.38
2022-07-25T08:26:03.974Z,10.65
2022-07-25T08:28:31.844Z,9.85
2022-07-25T08:31:01.258Z,11.00
2022-07-25T08:33:29.312Z,10.30
2022-07-25T08:35:58.783Z,10.77
2022-07-25T08:38:28.907Z,10.75
2022-07-25T08:40:57.916Z,10.88
2022-07-25T08:43:25.694Z,10.63
2022-07-25T08:45:55.386Z,10.70
2022-07-25T08:48:26.549Z,10.63
2022-07-25T08:50:57.039Z,10.27
2022-07-25T08:53:34.612Z,11.20
2022-07-25T08:56:11.178Z,10.60
2022-07-25T08:58:41.693Z,9.82
2022-07-25T09:01:11.892Z,10.52
2022-07-25T09:03:42.501Z,10.05
2022-07-25T09:06:18.651Z,10.20
2022-07-25T09:08:54.452Z,9.93
2022-07-25T09:11:33.100Z,10.07
2022-07-25T09:14:03.869Z,9.77
2022-07-25T09:16:35.235Z,10.00
2022-07-25T09:19:12.639Z,9.32
2022-07-25T09:21:41.875Z,9.93
2022-07-25T09:24:11.651Z,9.43
2022-07-25T09:26:51.396Z,9.23
2022-07-25T09:29:21.522Z,9.60
2022-07-25T09:31:49.569Z,9.45
2022-07-25T09:34:39.365Z,9.43
2022-07-25T09:37:09.312Z,9.38
2022-07-25T09:39:45.344Z,9.70
2022-07-25T09:42:20.988Z,9.93
2022-07-25T09:45:07.367Z,9.63
2022-07-25T09:47:36.832Z,9.02
2022-07-25T09:50:07.788Z,8.55
2022-07-25T09:52:36.665Z,8.55
2022-07-25T09:55:06.497Z,8.15
2022-07-25T09:57:34.307Z,8.00
2022-07-25T10:00:02.657Z,8.55
2022-07-25T10:02:48.118Z,8.45
2022-07-25T10:05:29.968Z,8.57
2022-07-25T10:07:58.555Z,7.85
2022-07-25T10:10:29.019Z,7.55
2022-07-25T10:13:10.584Z,7.30
2022-07-25T10:15:50.481Z,6.80
2022-07-25T10:18:19.570Z,7.32
2022-07-25T10:20:50.809Z,7.32
2022-07-25T10:23:24.087Z,6.80
2022-07-25T10:26:08.820Z,6.85
2022-07-25T10:28:42.564Z,5.88
2022-07-25T10:31:19.380Z,6.00
2022-07-25T10:33:50.052Z,6.43
2022-07-25T10:36:19.397Z,6.30
2022-07-25T10:38:48.114Z,6.38
2022-07-25T10:41:17.382Z,5.80
2022-07-25T10:43:48.790Z,5.30
2022-07-25T10:46:20.490Z,5.93
2022-07-25T10:48:58.776Z,6.10
2022-07-25T10:51:31.058Z,5.13
2022-07-25T10:53:59.179Z,4.72
2022-07-25T10:56:29.047Z,5.03
2022-07-25T10:58:58.111Z,5.68
2022-07-25T11:01:28.521Z,4.63
2022-07-25T11:03:57.820Z,4.88
2022-07-25T11:06:35.698Z,4.95
2022-07-25T11:09:05.022Z,4.70
2022-07-25T11:11:37.686Z,4.60
2022-07-25T11:14:06.750Z,5.95
2022-07-25T11:16:34.603Z,4.57
2022-07-25T11:19:02.392Z,4.10
2022-07-25T11:21:30.201Z,4.43
2022-07-25T11:23:59.327Z,4.53
2022-07-25T11:26:27.123Z,4.32
2022-07-25T11:28:54.896Z,4.35
2022-07-25T11:31:23.745Z,4.45
2022-07-25T11:33:51.796Z,4.10
2022-07-25T11:36:19.827Z,4.30
2022-07-25T11:38:50.258Z,4.32
2022-07-25T11:41:29.570Z,4.20
2022-07-25T11:43:57.651Z,4.18
2022-07-25T11:46:25.808Z,4.25
2022-07-25T11:49:05.606Z,4.07
2022-07-25T11:51:38.690Z,4.32
2022-07-25T11:54:11.655Z,4.28
2022-07-25T11:56:43.236Z,4.43
2022-07-25T11:59:12.291Z,4.55
2022-07-25T12:01:41.887Z,5.15
2022-07-25T12:04:14.491Z,5.15
2022-07-25T12:06:42.831Z,4.88
2022-07-25T12:09:18.924Z,5.15
2022-07-25T12:11:50.479Z,5.00
2022-07-25T12:14:18.517Z,5.45
2022-07-25T12:16:46.284Z,5.43
2022-07-25T12:19:22.625Z,5.25
2022-07-25T12:21:50.387Z,5.00
2022-07-25T12:24:18.474Z,5.53
2022-07-25T12:26:46.327Z,6.07
2022-07-25T12:29:15.545Z,5.22
2022-07-25T12:31:43.296Z,6.22
2022-07-25T12:34:11.025Z,6.10
2022-07-25T12:36:43.875Z,6.28
2022-07-25T12:39:12.010Z,5.97
2022-07-25T12:41:42.386Z,6.00
2022-07-25T12:44:10.124Z,5.70
2022-07-25T12:46:43.598Z,6.53
2022-07-25T12:49:16.901Z,6.20
2022-07-25T12:51:45.307Z,6.00
2022-07-25T12:54:13.100Z,5.97
2022-07-25T12:56:42.657Z,5.93
2022-07-25T12:59:10.601Z,6.13
2022-07-25T13:01:39.892Z,5.45
2022-07-25T13:04:09.259Z,5.88
2022-07-25T13:06:38.864Z,6.03
2022-07-25T13:09:07.536Z,5.85
2022-07-25T13:11:35.773Z,5.80
2022-07-25T13:14:03.622Z,5.47
2022-07-25T13:16:31.655Z,5.88
2022-07-25T13:19:00.832Z,5.50
2022-07-25T13:21:29.488Z,5.47
2022-07-25T13:23:57.284Z,5.43
2022-07-25T13:26:25.760Z,5.55
2022-07-25T13:28:59.379Z,5.50
2022-07-25T13:31:27.780Z,5.28
2022-07-25T13:33:55.705Z,5.20
2022-07-25T13:36:25.024Z,5.40
2022-07-25T13:38:52.893Z,5.25
2022-07-25T13:41:20.658Z,5.20
2022-07-25T13:43:48.780Z,5.20
2022-07-25T13:46:16.642Z,5.00
2022-07-25T13:48:44.650Z,5.00
2022-07-25T13:51:12.475Z,5.47
2022-07-25T13:53:41.868Z,5.53
2022-07-25T13:56:09.627Z,5.10
2022-07-25T13:58:37.520Z,5.20
2022-07-25T14:01:07.220Z,4.95
2022-07-25T14:03:36.291Z,5.28
2022-07-25T14:06:04.833Z,5.07
2022-07-25T14:08:32.928Z,5.22
2022-07-25T14:11:02.168Z,5.03
2022-07-25T14:13:30.339Z,4.80
2022-07-25T14:15:58.683Z,5.28
2022-07-25T14:18:26.515Z,5.13
2022-07-25T14:20:55.176Z,5.18
2022-07-25T14:23:25.715Z,5.80
2022-07-25T14:25:58.397Z,5.38
2022-07-25T14:28:27.629Z,5.22
2022-07-25T14:30:55.403Z,5.72
2022-07-25T14:33:23.150Z,5.85
2022-07-25T14:35:51.200Z,5.60
2022-07-25T14:38:19.061Z,5.70
2022-07-25T14:40:47.950Z,6.15
2022-07-25T14:43:15.852Z,5.82
2022-07-25T14:45:45.019Z,5.68
2022-07-25T14:48:12.809Z,6.15
2022-07-25T14:50:40.648Z,5.97
2022-07-25T14:53:12.826Z,5.95
2022-07-25T14:55:40.984Z,6.47
2022-07-25T14:58:08.820Z,6.57
2022-07-25T15:00:41.041Z,6.70
2022-07-25T15:03:10.415Z,6.60
2022-07-25T15:05:38.683Z,6.47
2022-07-25T15:08:08.533Z,6.78
2022-07-25T15:10:36.354Z,6.30
2022-07-25T15:13:29.510Z,6.55
2022-07-25T15:15:52.181Z,6.55
2022-07-25T15:18:21.720Z,6.60
2022-07-25T15:20:49.489Z,6.30
2022-07-25T15:23:17.353Z,6.18
2022-07-25T15:26:01.345Z,6.63
2022-07-25T15:28:30.127Z,7.00
2022-07-25T15:30:57.985Z,6.80
2022-07-25T15:33:27.446Z,6.65
2022-07-25T15:35:55.467Z,6.22
2022-07-25T15:38:23.298Z,6.82
2022-07-25T15:40:51.191Z,6.50
2022-07-25T15:43:20.951Z,6.32
2022-07-25T15:45:48.868Z,6.38
2022-07-25T15:48:17.893Z,6.10
2022-07-25T15:50:49.593Z,6.60
2022-07-25T15:53:17.424Z,6.13
2022-07-25T15:55:45.271Z,6.57
2022-07-25T15:58:13.127Z,6.15
2022-07-25T16:00:42.700Z,6.10
2022-07-25T16:03:11.247Z,6.97
2022-07-25T16:05:39.844Z,6.50
2022-07-25T16:08:09.916Z,5.97
2022-07-25T16:10:38.910Z,6.30
2022-07-25T16:13:07.464Z,5.72
2022-07-25T16:15:35.224Z,6.00
2022-07-25T16:18:03.377Z,5.80
2022-07-25T16:20:32.220Z,5.60
2022-07-25T16:23:00.589Z,6.18
2022-07-25T16:25:31.252Z,5.80
2022-07-25T16:28:01.739Z,5.70
2022-07-25T16:30:29.523Z,5.88
2022-07-25T16:32:57.322Z,5.47
2022-07-25T16:35:25.713Z,5.88
2022-07-25T16:37:53.491Z,5.50
2022-07-25T16:40:22.961Z,5.47
2022-07-25T16:42:58.337Z,5.43
2022-07-25T16:45:26.583Z,5.40
2022-07-25T16:47:54.404Z,5.82
2022-07-25T16:50:24.169Z,5.85
2022-07-25T16:52:53.567Z,5.55
2022-07-25T16:55:21.439Z,5.07
2022-07-25T16:57:49.232Z,5.63
2022-07-25T17:00:18.650Z,5.25
2022-07-25T17:02:46.654Z,5.18
2022-07-25T17:05:15.013Z,5.32
2022-07-25T17:07:43.225Z,5.57
2022-07-25T17:10:11.655Z,5.10
2022-07-25T17:12:39.417Z,5.68
2022-07-25T17:15:09.110Z,5.35
2022-07-25T17:17:38.268Z,5.50
2022-07-25T17:20:07.052Z,5.57
2022-07-25T17:22:34.993Z,5.25
2022-07-25T17:25:02.853Z,5.68
2022-07-25T17:27:30.985Z,5.43
2022-07-25T17:29:58.892Z,5.95
2022-07-25T17:32:30.003Z,5.40
2022-07-25T17:34:59.692Z,5.88
2022-07-25T17:37:28.291Z,5.63
2022-07-25T17:39:56.353Z,5.50
2022-07-25T17:42:24.149Z,5.50
2022-07-25T17:44:52.307Z,5.15
2022-07-25T17:47:20.263Z,5.38
2022-07-25T17:49:48.045Z,5.78
2022-07-25T17:52:17.804Z,5.82
2022-07-25T17:54:45.687Z,5.40
2022-07-25T17:57:13.497Z,6.18
2022-07-25T17:59:41.307Z,5.70
2022-07-25T18:02:09.222Z,5.20
2022-07-25T18:04:37.144Z,5.63
2022-07-25T18:07:05.651Z,5.90
2022-07-25T18:09:34.869Z,5.93
2022-07-25T18:12:02.974Z,5.70
2022-07-25T18:14:31.289Z,5.53
2022-07-25T18:16:59.171Z,5.75
2022-07-25T18:19:27.261Z,5.93
2022-07-25T18:21:55.075Z,5.82
2022-07-25T18:24:28.875Z,5.80
2022-07-25T18:26:59.353Z,5.80
2022-07-25T18:29:27.556Z,6.25
2022-07-25T18:31:58.847Z,5.78
2022-07-25T18:34:26.634Z,5.68
2022-07-25T18:36:54.473Z,6.00
2022-07-25T18:39:22.303Z,5.93
2022-07-25T18:41:51.997Z,5.75
2022-07-25T18:44:21.227Z,5.80
2022-07-25T18:46:49.049Z,6.00
2022-07-25T18:49:17.025Z,5.82
2022-07-25T18:51:44.891Z,5.38
2022-07-25T18:54:12.752Z,5.68
2022-07-25T18:56:40.520Z,6.30
2022-07-25T18:59:08.677Z,5.90
2022-07-25T19:01:38.622Z,5.93
2022-07-25T19:04:07.211Z,5.90
2022-07-25T19:06:35.425Z,5.82
2022-07-25T19:09:03.956Z,5.60
2022-07-25T19:11:33.258Z,5.95
2022-07-25T19:14:01.138Z,5.53
2022-07-25T19:16:29.092Z,5.90
2022-07-25T19:18:58.377Z,5.53
2022-07-25T19:21:26.234Z,5.90
2022-07-25T19:23:53.981Z,5.88
2022-07-25T19:26:22.372Z,5.85
2022-07-25T19:28:50.548Z,5.90
2022-07-25T19:31:18.412Z,5.90
2022-07-25T19:33:46.757Z,6.22
2022-07-25T19:36:15.945Z,6.07
2022-07-25T19:38:43.728Z,6.20
2022-07-25T19:41:11.924Z,5.88
2022-07-25T19:43:39.972Z,5.80
2022-07-25T19:46:07.878Z,6.38
2022-07-25T19:48:35.878Z,6.35
2022-07-25T19:51:03.817Z,5.95
2022-07-25T19:53:33.614Z,6.30
2022-07-25T19:56:01.500Z,6.07
2022-07-25T19:58:29.406Z,6.03
2022-07-25T20:00:57.161Z,6.15
2022-07-25T20:03:25.095Z,5.65
2022-07-25T20:05:52.928Z,6.00
2022-07-25T20:08:20.692Z,6.10
2022-07-25T20:10:49.831Z,5.90
2022-07-25T20:13:17.624Z,6.28
2022-07-25T20:15:45.411Z,6.60
2022-07-25T20:18:18.921Z,7.00
2022-07-25T20:20:47.274Z,6.53
2022-07-25T20:23:15.068Z,6.05
2022-07-25T20:25:42.855Z,6.80
2022-07-25T20:28:12.013Z,6.38
2022-07-25T20:30:40.072Z,7.18
2022-07-25T20:33:09.152Z,7.13
2022-07-25T20:35:38.097Z,6.82
2022-07-25T20:38:10.053Z,11.15
2022-07-25T20:40:42.885Z,9.25
2022-07-25T20:43:15.661Z,7.00
2022-07-25T20:45:43.628Z,8.10
2022-07-25T20:48:12.044Z,8.60
2022-07-25T20:50:40.652Z,8.73
2022-07-25T20:53:09.966Z,8.15
2022-07-25T20:55:38.223Z,8.75
2022-07-25T20:58:06.316Z,8.90
2022-07-25T21:00:35.687Z,8.13
2022-07-25T21:03:03.518Z,8.75
2022-07-25T21:05:31.939Z,8.20
2022-07-25T21:08:00.039Z,8.52
2022-07-25T21:10:27.877Z,8.63
2022-07-25T21:12:56.788Z,8.70
2022-07-25T21:15:24.839Z,8.10
2022-07-25T21:17:53.968Z,8.85
2022-07-25T21:20:21.734Z,8.73
2022-07-25T21:22:49.719Z,8.88
2022-07-25T21:25:17.579Z,8.57
2022-07-25T21:27:45.320Z,8.38
2022-07-25T21:30:13.650Z,9.27
2022-07-25T21:32:42.030Z,8.65
2022-07-25T21:35:11.774Z,8.93
2022-07-25T21:37:39.936Z,9.48
2022-07-25T21:40:09.588Z,9.40
2022-07-25T21:42:37.784Z,9.48
2022-07-25T21:45:06.895Z,8.57
2022-07-25T21:47:34.704Z,9.55
2022-07-25T21:50:24.811Z,9.45
2022-07-25T21:52:55.552Z,9.07
2022-07-25T21:55:23.487Z,9.23
2022-07-25T21:57:52.249Z,9.90
2022-07-25T22:00:21.416Z,10.00
2022-07-25T22:02:49.844Z,9.88
2022-07-25T22:05:19.187Z,9.68
2022-07-25T22:07:47.644Z,9.88
2022-07-25T22:10:18.499Z,9.52
2022-07-25T22:12:46.482Z,9.52
2022-07-25T22:15:16.689Z,9.27
2022-07-25T22:17:48.686Z,8.88
2022-07-25T22:20:18.444Z,8.18
2022-07-25T22:22:46.593Z,8.23
2022-07-25T22:25:16.180Z,7.57
2022-07-25T22:27:44.222Z,6.45
2022-07-25T22:30:18.501Z,7.03
2022-07-25T22:32:47.529Z,6.65
2022-07-25T22:35:15.573Z,6.53
2022-07-25T22:37:43.860Z,6.63
2022-07-25T22:40:12.743Z,6.63
2022-07-25T22:42:41.928Z,7.20
2022-07-25T22:45:10.791Z,6.78
2022-07-25T22:47:38.755Z,7.28
2022-07-25T22:50:08.283Z,6.28
2022-07-25T22:52:36.039Z,7.35
2022-07-25T22:55:04.152Z,7.18
2022-07-25T22:57:36.755Z,7.07
2022-07-25T23:00:09.721Z,8.00
2022-07-25T23:02:37.597Z,7.45
2022-07-25T23:05:06.451Z,7.03
2022-07-25T23:07:34.567Z,7.50
2022-07-25T23:10:02.705Z,7.35
2022-07-25T23:12:30.564Z,7.65
2022-07-25T23:14:58.343Z,6.93
2022-07-25T23:17:27.513Z,7.20
2022-07-25T23:19:56.872Z,7.07
2022-07-25T23:22:27.795Z,7.18
2022-07-25T23:24:55.979Z,7.25
2022-07-25T23:27:25.663Z,6.88
2022-07-25T23:29:53.703Z,6.70
2022-07-25T23:32:22.597Z,6.82
2022-07-25T23:34:51.759Z,7.25
2022-07-25T23:37:19.598Z,7.13
2022-07-25T23:39:47.425Z,6.30
2022-07-25T23:42:15.193Z,6.72
2022-07-25T23:44:44.465Z,6.93
2022-07-25T23:47:12.367Z,6.78
2022-07-25T23:49:40.516Z,6.63
2022-07-25T23:52:09.829Z,6.78
2022-07-25T23:54:38.638Z,7.18
2022-07-25T23:57:07.107Z,6.68
2022-07-25T23:59:35.347Z,6.78
